Station: Aireys Inlet  

  Atmospheric Gas Attenuation - ITU Rec 676-11   ----------------- dB/100km -----------------
Date Time Temp RH % AH g/m3 Dew Point Wind Direction Speed kph Gust kph Barometer mB Rainfall Since 9am 24GHz 47GHz 76GHz 122GHz 134GHz 241GHz
08/05 12:30 13.5 81 9.47 10.3 30 44 1013.1 0 21.5 27.4 43.5 114.3 110.5 380.8
08/05 12:20 14.1 79 9.59 10.5 24 35 1013.1 0 21.7 27.4 43.7 114.8 111.3 383.6
08/05 12:10 14.3 76 9.34 10.1 20 30 1013.1 0 21.1 26.9 42.5 111.8 107.6 370.7
08/05 12:00 14.4 76 9.39 10.2 17 30 1013.1 0 21.2 27.0 42.7 112.2 108.1 372.6
08/05 11:50 14.2 74 9.04 9.6 19 22 1013.1 0 20.5 26.5 41.4 108.6 103.7 357.1
08/05 11:40 14.5 66 8.21 8.2 32 43 1013.1 0 18.7 25.1 37.9 99.4 92.4 317.7
08/05 11:30 15 64 8.21 8.3 28 39 1013.1 0 18.7 24.9 37.7 98.8 91.9 315.7
08/05 11:20 14.6 66 8.26 8.3 32 41 1013.1 0 18.8 25.1 38.1 99.8 93.0 319.6
08/05 11:10 14.5 66 8.21 8.2 32 43 1013.1 0 18.7 25.1 37.9 99.4 92.4 317.7
08/05 11:00 14.5 66 8.21 8.2 30 39 1013.1 0 18.7 25.1 37.9 99.4 92.4 317.7
08/05 10:50 14.8 66 8.36 8.5 28 37 1013.1 0 19.0 25.2 38.3 100.6 94.0 323.3
08/05 10:40 14.7 66 8.31 8.4 26 33 1013.1 0 18.9 25.2 38.2 100.2 93.5 321.4
08/05 10:30 14.5 68 8.46 8.7 30 43 1013.1 0 19.3 25.5 38.9 102.0 95.7 329.1
08/05 10:20 14.4 70 8.65 9 32 41 1013.1 0 19.7 25.8 39.7 104.2 98.3 338.2
08/05 10:10 14.2 74 9.04 9.6 22 26 1013.1 0 20.5 26.5 41.4 108.6 103.7 357.1
08/05 10:00 13.7 76 9 9.6 24 39 1013.1 0 20.5 26.6 41.5 108.9 103.8 357.5
08/05 09:50 13.5 80 9.36 10.1 22 28 1013.1 0 21.2 27.2 43.0 113.1 109.0 375.5
08/05 09:40 13.7 79 9.36 10.1 20 28 1013.1 0 21.2 27.2 42.9 112.8 108.7 374.5
08/05 09:30 13.4 81 9.42 10.2 6 15 1013.1 0 21.4 27.4 43.4 113.9 110.0 378.9
08/05 09:20 13.1 81 9.24 9.9 9 13 1013.1 0 21.0 27.2 42.8 112.4 107.9 371.7
08/05 09:10 13.1 82 9.36 10.1 9 9 1013.1 0 21.3 27.4 43.3 113.7 109.6 377.4
08/05 09:00 12.8 83 9.3 10 7 17 1013.1 0 21.1 27.3 43.2 113.5 109.2 376.0
08/05 08:50 12.6 83 9.18 9.9 7 7 1013.1 1.4 20.9 27.2 42.8 112.4 107.8 371.2
08/05 08:40 12.4 83 9.07 9.6 9 11 1013.1 1.4 20.7 27.1 42.4 111.5 106.6 366.9
08/05 08:30 12.4 81 8.85 9.2 9 17 1013.1 1.4 20.2 26.7 41.5 109.1 103.6 356.4
08/05 08:20 12.2 80 8.63 8.8 7 9 1013.1 1.4 19.7 26.4 40.7 106.9 100.8 346.9
08/05 08:10 12.3 80 8.69 8.9 13 17 1013.1 1.4 19.9 26.5 40.9 107.4 101.5 349.2
08/05 08:00 12.3 81 8.8 9.1 15 26 1013.1 1.4 20.1 26.7 41.4 108.6 103.0 354.5
08/05 07:50 12.6 82 9.07 9.6 24 32 1013.1 1.4 20.7 27.0 42.3 111.2 106.3 365.9
08/05 07:40 12.3 83 9.01 9.6 24 32 1013.1 1.4 20.5 27.0 42.2 111.0 105.9 364.5
08/05 07:30 11.9 86 9.11 9.6 13 20 1013.1 1.4 20.8 27.3 42.9 112.7 107.8 371.2
08/05 07:20 11.7 87 9.1 9.6 13 15 1013.1 1.4 20.8 27.3 42.9 112.8 108.0 371.7
08/05 07:10 11.5 87 8.99 9.5 11 11 1013.1 1.4 20.5 27.2 42.6 111.9 106.7 367.3
08/05 07:00 11.5 89 9.19 9.8 13 20 1013.1 1.4 21.0 27.6 43.4 114.1 109.5 377.0
08/05 06:50 11.5 90 9.3 9.9 9 13 1013.1 1.4 21.2 27.8 43.9 115.4 111.0 382.4
08/05 06:40 11.4 90 9.24 9.8 15 15 1013.1 1.4 21.1 27.7 43.7 114.9 110.3 379.9
08/05 06:30 11.7 90 9.41 10.1 13 22 1013.1 1.4 21.4 27.9 44.3 116.3 112.3 386.8
08/05 06:20 11.6 90 9.36 10.1 13 20 1013.1 1.4 21.3 27.8 44.1 115.9 111.7 384.8
08/05 06:10 11.7 90 9.41 10.1 13 15 1013.1 1.2 21.4 27.9 44.3 116.3 112.3 386.8
08/05 06:00 11.9 90 9.53 10.3 13 26 1013.1 1.2 21.7 28.0 44.7 117.4 113.7 391.6
08/05 05:50 11.9 90 9.53 10.3 15 19 1013.1 1.2 21.7 28.0 44.7 117.4 113.7 391.6
08/05 05:40 12 87 9.27 10 22 30 1013.1 1.2 21.1 27.5 43.5 114.3 109.9 378.5
08/05 05:30 12.5 85 9.35 10 15 24 1013.1 1.2 21.3 27.5 43.6 114.5 110.3 379.9
08/05 05:20 12.8 81 9.07 9.6 9 11 1013.1 1.2 20.6 27.0 42.2 110.9 106.0 365.0
08/05 05:10 12.8 80 8.96 9.4 11 15 1013.1 1.2 20.4 26.8 41.8 109.7 104.5 359.8
08/05 05:00 12.9 80 9.02 9.5 15 24 1013.1 1.2 20.5 26.8 42.0 110.2 105.2 362.2
08/05 04:50 13 80 9.07 9.6 13 17 1013.1 1.2 20.6 26.9 42.1 110.6 105.7 364.1
08/05 04:40 13 80 9.07 9.6 15 20 1013.1 1.2 20.6 26.9 42.1 110.6 105.7 364.1
08/05 04:30 13 80 9.07 9.6 15 24 1013.1 1.2 20.6 26.9 42.1 110.6 105.7 364.1
08/05 04:20 12.9 81 9.13 9.7 13 17 1013.1 1.2 20.8 27.0 42.4 111.4 106.7 367.4
08/05 04:10 12.8 82 9.19 9.8 13 15 1013.1 1.2 20.9 27.2 42.7 112.3 107.7 370.7
08/05 04:00 12.8 81 9.07 9.6 15 24 1013.1 1.2 20.6 27.0 42.2 110.9 106.0 365.0
08/05 03:50 12.9 80 9.02 9.5 11 22 1013.1 1.2 20.5 26.8 42.0 110.2 105.2 362.2
08/05 03:40 12.8 81 9.07 9.6 15 19 1013.1 1.2 20.6 27.0 42.2 110.9 106.0 365.0
08/05 03:30 12.8 81 9.07 9.6 17 24 1013.1 1.2 20.6 27.0 42.2 110.9 106.0 365.0
08/05 03:20 12.8 81 9.07 9.6 17 20 1013.1 1.2 20.6 27.0 42.2 110.9 106.0 365.0
08/05 03:10 12.9 80 9.02 9.5 15 20 1013.1 1.2 20.5 26.8 42.0 110.2 105.2 362.2
08/05 03:00 13 79 8.96 9.4 17 24 1013.1 1.2 20.4 26.7 41.7 109.4 104.2 358.9
08/05 02:50 13 79 8.96 9.4 17 20 1013.1 1.2 20.4 26.7 41.7 109.4 104.2 358.9
08/05 02:40 12.8 81 9.07 9.6 20 24 1013.1 1.2 20.6 27.0 42.2 110.9 106.0 365.0
08/05 02:30 12.7 83 9.24 9.9 17 26 1013.1 1.2 21.0 27.3 43.0 113.0 108.5 373.6
08/05 02:20 12.6 83 9.18 9.8 15 17 1013.1 1.2 20.9 27.2 42.8 112.4 107.8 371.2
08/05 02:10 12.7 82 9.13 9.7 15 20 1013.1 1.2 20.8 27.1 42.5 111.7 107.0 368.3
08/05 02:00 12.8 81 9.07 9.6 19 26 1013.1 1.2 20.6 27.0 42.2 110.9 106.0 365.0
08/05 01:50 12.7 81 9.02 9.5 13 19 1013.1 1.2 20.5 26.9 42.1 110.5 105.5 363.1
08/05 01:40 12.7 81 9.02 9.5 17 20 1013.1 1.2 20.5 26.9 42.1 110.5 105.5 363.1
08/05 01:30 12.6 81 8.96 9.4 20 32 1013.1 1.2 20.4 26.8 41.9 110.0 104.8 360.7
08/05 01:20 12.6 81 8.96 9.4 24 30 1013.1 1.2 20.4 26.8 41.9 110.0 104.8 360.7
08/05 01:10 12.6 81 8.96 9.4 20 24 1013.1 1.2 20.4 26.8 41.9 110.0 104.8 360.7
08/05 01:00 12.5 81 8.91 9.3 22 33 1013.1 1.2 20.3 26.8 41.7 109.6 104.2 358.8
08/05 00:50 12.5 82 9.02 9.5 20 24 1013.1 1.2 20.6 27.0 42.2 110.8 105.7 364.0
08/05 00:40 12.5 82 9.02 9.5 15 19 1013.1 1.2 20.6 27.0 42.2 110.8 105.7 364.0
08/05 00:30 12.4 83 9.07 9.6 20 30 1013.1 1.2 20.7 27.1 42.4 111.5 106.6 366.9
08/05 00:20 12.4 83 9.07 9.6 19 24 1013.1 1.2 20.7 27.1 42.4 111.5 106.6 366.9
08/05 00:10 12.4 82 8.96 9.4 26 32 1013.1 1.2 20.4 26.9 42.0 110.3 105.1 361.6
08/05 00:00 12.3 83 9.01 9.5 20 32 1013.1 1.2 20.5 27.0 42.2 111.0 105.9 364.5
07/05 23:50 12.3 83 9.01 9.5 17 20 1013.1 1.2 20.5 27.0 42.2 111.0 105.9 364.5
07/05 23:40 12.5 83 9.13 9.7 15 17 1013.1 1.2 20.8 27.2 42.6 112.0 107.3 369.3
07/05 23:30 12.3 84 9.12 9.7 19 28 1013.1 1.2 20.8 27.2 42.7 112.2 107.4 369.8
07/05 23:20 12.3 83 9.01 9.6 20 26 1013.1 1.2 20.5 27.0 42.2 111.0 105.9 364.5
07/05 23:10 12.1 85 9.12 9.6 20 28 1013.1 1.2 20.8 27.3 42.8 112.5 107.7 370.7
07/05 23:00 11.9 86 9.11 9.6 19 28 1013.1 1.2 20.8 27.3 42.9 112.7 107.8 371.2
07/05 22:50 11.8 86 9.05 9.5 13 15 1013.1 1.2 20.7 27.2 42.7 112.1 107.1 368.8
07/05 22:40 11.8 86 9.05 9.5 22 26 1013.1 1.2 20.7 27.2 42.7 112.1 107.1 368.8
07/05 22:30 11.7 86 9 9.4 19 28 1013.1 1.2 20.6 27.2 42.5 111.7 106.6 366.8
07/05 22:20 11.6 85 8.84 9.1 17 22 1013.1 1.2 20.2 26.9 41.9 110.1 104.5 359.6
07/05 22:10 11.6 86 8.94 9.3 20 24 1013.1 1.2 20.4 27.1 42.3 111.2 105.9 364.4
07/05 22:00 11.4 87 8.93 9.3 19 30 1013.1 1.2 20.4 27.2 42.4 111.4 106.0 364.9
07/05 21:50 11.2 87 8.82 9.1 15 20 1013.1 1.2 20.2 27.0 42.0 110.4 104.8 360.5
07/05 21:40 11.1 87 8.76 9 15 20 1013.1 1.2 20.1 27.0 41.8 109.9 104.1 358.0
07/05 21:30 11.1 87 8.76 9 20 33 1013.1 1.2 20.1 27.0 41.8 109.9 104.1 358.0
07/05 21:20 11 86 8.61 8.7 17 20 1013.1 1.2 19.7 26.7 41.3 108.3 102.2 351.3
07/05 21:10 11 86 8.61 8.7 22 32 1013.1 1.2 19.7 26.7 41.3 108.3 102.2 351.3
07/05 21:00 10.9 86 8.56 8.7 19 28 1013.1 1.2 19.6 26.7 41.1 107.9 101.6 349.3
07/05 20:50 10.9 84 8.36 8.4 19 24 1013.1 1.2 19.2 26.3 40.3 105.7 98.9 339.7
07/05 20:40 10.9 84 8.36 8.4 22 30 1013.1 1.2 19.2 26.3 40.3 105.7 98.9 339.7
07/05 20:30 10.7 86 8.45 8.5 15 30 1013.1 1.2 19.4 26.6 40.8 107.0 100.4 344.9
07/05 20:20 10.5 87 8.44 8.4 15 19 1013.1 1.2 19.4 26.6 40.8 107.1 100.5 345.3
07/05 20:10 10.5 87 8.44 8.4 20 24 1013.1 1.2 19.4 26.6 40.8 107.1 100.5 345.3
07/05 20:00 10.3 88 8.43 8.4 15 24 1013.1 1.2 19.4 26.6 40.9 107.3 100.6 345.7

Last Refresh: 08-May-2026 12:07:36

Bureau of Meteorology